sensor_id;sensor_type;location;lat;lon;timestamp;P1;durP1;ratioP1;P2;durP2;ratioP2
8094;SDS011;4090;49.270;8.696;2023-06-26T00:00:42;5.63;;;4.97;;
8094;SDS011;4090;49.270;8.696;2023-06-26T00:03:24;5.78;;;4.82;;
8094;SDS011;4090;49.270;8.696;2023-06-26T00:06:06;5.78;;;5.00;;
8094;SDS011;4090;49.270;8.696;2023-06-26T00:08:49;5.47;;;4.72;;
8094;SDS011;4090;49.270;8.696;2023-06-26T00:11:30;5.63;;;4.78;;
8094;SDS011;4090;49.270;8.696;2023-06-26T00:14:13;5.50;;;4.90;;
8094;SDS011;4090;49.270;8.696;2023-06-26T00:16:55;5.65;;;4.57;;
8094;SDS011;4090;49.270;8.696;2023-06-26T00:19:37;5.35;;;4.78;;
8094;SDS011;4090;49.270;8.696;2023-06-26T00:22:19;6.72;;;5.32;;
8094;SDS011;4090;49.270;8.696;2023-06-26T00:25:03;5.22;;;4.65;;
8094;SDS011;4090;49.270;8.696;2023-06-26T00:27:45;6.47;;;5.20;;
8094;SDS011;4090;49.270;8.696;2023-06-26T00:30:27;6.18;;;5.05;;
8094;SDS011;4090;49.270;8.696;2023-06-26T00:33:11;6.07;;;5.20;;
8094;SDS011;4090;49.270;8.696;2023-06-26T00:35:53;6.13;;;5.25;;
8094;SDS011;4090;49.270;8.696;2023-06-26T00:38:35;5.30;;;4.30;;
8094;SDS011;4090;49.270;8.696;2023-06-26T00:41:21;6.13;;;4.70;;
8094;SDS011;4090;49.270;8.696;2023-06-26T00:44:04;6.10;;;5.25;;
8094;SDS011;4090;49.270;8.696;2023-06-26T00:46:47;5.28;;;4.72;;
8094;SDS011;4090;49.270;8.696;2023-06-26T00:49:29;5.47;;;4.97;;
8094;SDS011;4090;49.270;8.696;2023-06-26T00:52:11;7.43;;;4.75;;
8094;SDS011;4090;49.270;8.696;2023-06-26T00:54:54;5.93;;;4.97;;
8094;SDS011;4090;49.270;8.696;2023-06-26T00:57:38;5.40;;;4.70;;
8094;SDS011;4090;49.270;8.696;2023-06-26T01:00:19;7.70;;;5.38;;
8094;SDS011;4090;49.270;8.696;2023-06-26T01:03:01;6.05;;;4.75;;
8094;SDS011;4090;49.270;8.696;2023-06-26T01:05:43;6.75;;;5.20;;
8094;SDS011;4090;49.270;8.696;2023-06-26T01:08:31;7.82;;;5.40;;
8094;SDS011;4090;49.270;8.696;2023-06-26T01:11:13;7.45;;;4.88;;
8094;SDS011;4090;49.270;8.696;2023-06-26T01:13:57;6.47;;;4.97;;
8094;SDS011;4090;49.270;8.696;2023-06-26T01:16:43;7.20;;;5.28;;
8094;SDS011;4090;49.270;8.696;2023-06-26T01:19:28;6.18;;;5.10;;
8094;SDS011;4090;49.270;8.696;2023-06-26T01:22:14;6.55;;;5.10;;
8094;SDS011;4090;49.270;8.696;2023-06-26T01:25:03;7.53;;;5.45;;
8094;SDS011;4090;49.270;8.696;2023-06-26T01:27:54;5.88;;;5.00;;
8094;SDS011;4090;49.270;8.696;2023-06-26T01:30:39;5.38;;;4.70;;
8094;SDS011;4090;49.270;8.696;2023-06-26T01:33:22;5.07;;;4.57;;
8094;SDS011;4090;49.270;8.696;2023-06-26T01:36:06;5.80;;;4.72;;
8094;SDS011;4090;49.270;8.696;2023-06-26T01:38:49;6.13;;;4.95;;
8094;SDS011;4090;49.270;8.696;2023-06-26T01:41:32;7.68;;;5.45;;
8094;SDS011;4090;49.270;8.696;2023-06-26T01:44:17;8.43;;;5.22;;
8094;SDS011;4090;49.270;8.696;2023-06-26T01:47:06;7.32;;;5.32;;
8094;SDS011;4090;49.270;8.696;2023-06-26T01:49:52;6.07;;;4.90;;
8094;SDS011;4090;49.270;8.696;2023-06-26T01:52:39;6.93;;;5.30;;
8094;SDS011;4090;49.270;8.696;2023-06-26T01:55:24;5.80;;;5.20;;
8094;SDS011;4090;49.270;8.696;2023-06-26T01:58:16;6.22;;;5.15;;
8094;SDS011;4090;49.270;8.696;2023-06-26T02:01:02;5.70;;;4.78;;
8094;SDS011;4090;49.270;8.696;2023-06-26T02:03:46;5.40;;;4.82;;
8094;SDS011;4090;49.270;8.696;2023-06-26T02:06:28;6.45;;;5.40;;
8094;SDS011;4090;49.270;8.696;2023-06-26T02:09:10;7.28;;;5.30;;
8094;SDS011;4090;49.270;8.696;2023-06-26T02:11:52;6.90;;;5.45;;
8094;SDS011;4090;49.270;8.696;2023-06-26T02:14:34;5.95;;;5.35;;
8094;SDS011;4090;49.270;8.696;2023-06-26T02:17:17;6.38;;;5.38;;
8094;SDS011;4090;49.270;8.696;2023-06-26T02:20:00;7.20;;;5.28;;
8094;SDS011;4090;49.270;8.696;2023-06-26T02:22:44;5.97;;;4.85;;
8094;SDS011;4090;49.270;8.696;2023-06-26T02:25:26;6.70;;;5.18;;
8094;SDS011;4090;49.270;8.696;2023-06-26T02:28:08;5.65;;;4.72;;
8094;SDS011;4090;49.270;8.696;2023-06-26T02:30:50;6.82;;;5.18;;
8094;SDS011;4090;49.270;8.696;2023-06-26T02:33:33;5.38;;;4.85;;
8094;SDS011;4090;49.270;8.696;2023-06-26T02:36:15;6.97;;;5.40;;
8094;SDS011;4090;49.270;8.696;2023-06-26T02:38:57;6.53;;;5.32;;
8094;SDS011;4090;49.270;8.696;2023-06-26T02:41:39;6.18;;;5.32;;
8094;SDS011;4090;49.270;8.696;2023-06-26T02:44:21;6.72;;;5.35;;
8094;SDS011;4090;49.270;8.696;2023-06-26T02:47:03;5.82;;;5.05;;
8094;SDS011;4090;49.270;8.696;2023-06-26T02:49:47;8.15;;;5.50;;
8094;SDS011;4090;49.270;8.696;2023-06-26T02:52:29;5.90;;;5.15;;
8094;SDS011;4090;49.270;8.696;2023-06-26T02:55:11;5.90;;;5.05;;
8094;SDS011;4090;49.270;8.696;2023-06-26T02:57:53;7.97;;;5.15;;
8094;SDS011;4090;49.270;8.696;2023-06-26T03:00:36;8.55;;;5.35;;
8094;SDS011;4090;49.270;8.696;2023-06-26T03:03:21;9.27;;;5.10;;
8094;SDS011;4090;49.270;8.696;2023-06-26T03:06:04;6.25;;;5.13;;
8094;SDS011;4090;49.270;8.696;2023-06-26T03:08:46;7.05;;;5.35;;
8094;SDS011;4090;49.270;8.696;2023-06-26T03:11:29;5.88;;;5.18;;
8094;SDS011;4090;49.270;8.696;2023-06-26T03:14:15;7.25;;;5.60;;
8094;SDS011;4090;49.270;8.696;2023-06-26T03:16:57;6.68;;;5.45;;
8094;SDS011;4090;49.270;8.696;2023-06-26T03:19:43;7.22;;;5.68;;
8094;SDS011;4090;49.270;8.696;2023-06-26T03:22:33;7.55;;;5.60;;
8094;SDS011;4090;49.270;8.696;2023-06-26T03:25:15;8.73;;;5.80;;
8094;SDS011;4090;49.270;8.696;2023-06-26T03:27:57;7.38;;;5.47;;
8094;SDS011;4090;49.270;8.696;2023-06-26T03:30:40;6.72;;;5.85;;
8094;SDS011;4090;49.270;8.696;2023-06-26T03:33:22;8.00;;;6.10;;
8094;SDS011;4090;49.270;8.696;2023-06-26T03:36:04;6.70;;;5.43;;
8094;SDS011;4090;49.270;8.696;2023-06-26T03:38:48;6.53;;;5.82;;
8094;SDS011;4090;49.270;8.696;2023-06-26T03:41:30;9.68;;;6.28;;
8094;SDS011;4090;49.270;8.696;2023-06-26T03:44:12;6.90;;;5.63;;
8094;SDS011;4090;49.270;8.696;2023-06-26T03:47:01;7.35;;;5.72;;
8094;SDS011;4090;49.270;8.696;2023-06-26T03:49:43;7.10;;;5.30;;
8094;SDS011;4090;49.270;8.696;2023-06-26T03:52:25;8.45;;;6.30;;
8094;SDS011;4090;49.270;8.696;2023-06-26T03:55:08;8.60;;;5.68;;
8094;SDS011;4090;49.270;8.696;2023-06-26T03:57:50;7.70;;;5.47;;
8094;SDS011;4090;49.270;8.696;2023-06-26T04:00:32;6.60;;;5.38;;
8094;SDS011;4090;49.270;8.696;2023-06-26T04:03:14;6.15;;;5.10;;
8094;SDS011;4090;49.270;8.696;2023-06-26T04:05:56;7.75;;;5.47;;
8094;SDS011;4090;49.270;8.696;2023-06-26T04:08:38;7.53;;;5.95;;
8094;SDS011;4090;49.270;8.696;2023-06-26T04:11:21;7.78;;;5.68;;
8094;SDS011;4090;49.270;8.696;2023-06-26T04:14:04;9.10;;;5.70;;
8094;SDS011;4090;49.270;8.696;2023-06-26T04:16:46;8.75;;;5.80;;
8094;SDS011;4090;49.270;8.696;2023-06-26T04:19:28;8.93;;;5.95;;
8094;SDS011;4090;49.270;8.696;2023-06-26T04:22:10;8.27;;;5.90;;
8094;SDS011;4090;49.270;8.696;2023-06-26T04:24:51;10.05;;;6.00;;
8094;SDS011;4090;49.270;8.696;2023-06-26T04:27:35;9.52;;;6.00;;
8094;SDS011;4090;49.270;8.696;2023-06-26T04:30:17;7.97;;;5.90;;
8094;SDS011;4090;49.270;8.696;2023-06-26T04:32:58;7.47;;;6.15;;
8094;SDS011;4090;49.270;8.696;2023-06-26T04:35:41;8.10;;;5.78;;
8094;SDS011;4090;49.270;8.696;2023-06-26T04:38:24;7.82;;;5.80;;
8094;SDS011;4090;49.270;8.696;2023-06-26T04:41:06;6.47;;;5.50;;
8094;SDS011;4090;49.270;8.696;2023-06-26T04:43:49;7.07;;;5.93;;
8094;SDS011;4090;49.270;8.696;2023-06-26T04:46:31;7.97;;;5.55;;
8094;SDS011;4090;49.270;8.696;2023-06-26T04:49:13;6.78;;;5.38;;
8094;SDS011;4090;49.270;8.696;2023-06-26T04:51:57;8.60;;;5.10;;
8094;SDS011;4090;49.270;8.696;2023-06-26T04:54:40;7.75;;;5.40;;
8094;SDS011;4090;49.270;8.696;2023-06-26T04:57:22;10.57;;;6.15;;
8094;SDS011;4090;49.270;8.696;2023-06-26T05:00:06;9.13;;;5.10;;
8094;SDS011;4090;49.270;8.696;2023-06-26T05:02:51;14.98;;;6.68;;
8094;SDS011;4090;49.270;8.696;2023-06-26T05:05:40;11.50;;;5.63;;
8094;SDS011;4090;49.270;8.696;2023-06-26T05:08:23;7.13;;;5.53;;
8094;SDS011;4090;49.270;8.696;2023-06-26T05:11:06;8.13;;;5.28;;
8094;SDS011;4090;49.270;8.696;2023-06-26T05:13:48;7.75;;;5.57;;
8094;SDS011;4090;49.270;8.696;2023-06-26T05:16:31;8.05;;;6.10;;
8094;SDS011;4090;49.270;8.696;2023-06-26T05:19:13;8.20;;;5.32;;
8094;SDS011;4090;49.270;8.696;2023-06-26T05:21:55;7.72;;;5.70;;
8094;SDS011;4090;49.270;8.696;2023-06-26T05:24:38;8.07;;;5.13;;
8094;SDS011;4090;49.270;8.696;2023-06-26T05:27:21;9.48;;;5.70;;
8094;SDS011;4090;49.270;8.696;2023-06-26T05:30:03;8.93;;;5.47;;
8094;SDS011;4090;49.270;8.696;2023-06-26T05:32:47;9.93;;;6.38;;
8094;SDS011;4090;49.270;8.696;2023-06-26T05:35:30;12.88;;;6.47;;
8094;SDS011;4090;49.270;8.696;2023-06-26T05:38:13;11.30;;;5.90;;
8094;SDS011;4090;49.270;8.696;2023-06-26T05:40:55;10.45;;;6.25;;
8094;SDS011;4090;49.270;8.696;2023-06-26T05:43:37;6.53;;;5.65;;
8094;SDS011;4090;49.270;8.696;2023-06-26T05:46:19;8.27;;;5.93;;
8094;SDS011;4090;49.270;8.696;2023-06-26T05:49:03;8.60;;;6.05;;
8094;SDS011;4090;49.270;8.696;2023-06-26T05:51:45;8.38;;;5.55;;
8094;SDS011;4090;49.270;8.696;2023-06-26T05:54:27;6.78;;;5.53;;
8094;SDS011;4090;49.270;8.696;2023-06-26T05:57:10;8.38;;;6.15;;
8094;SDS011;4090;49.270;8.696;2023-06-26T05:59:54;8.48;;;6.10;;
8094;SDS011;4090;49.270;8.696;2023-06-26T06:02:36;8.25;;;6.28;;
8094;SDS011;4090;49.270;8.696;2023-06-26T06:05:20;8.43;;;6.68;;
8094;SDS011;4090;49.270;8.696;2023-06-26T06:08:05;8.65;;;6.40;;
8094;SDS011;4090;49.270;8.696;2023-06-26T06:10:49;8.70;;;6.05;;
8094;SDS011;4090;49.270;8.696;2023-06-26T06:13:31;9.48;;;6.40;;
8094;SDS011;4090;49.270;8.696;2023-06-26T06:16:13;8.07;;;7.00;;
8094;SDS011;4090;49.270;8.696;2023-06-26T06:18:55;14.75;;;6.45;;
8094;SDS011;4090;49.270;8.696;2023-06-26T06:21:38;8.65;;;6.38;;
8094;SDS011;4090;49.270;8.696;2023-06-26T06:24:22;10.48;;;6.68;;
8094;SDS011;4090;49.270;8.696;2023-06-26T06:27:03;7.50;;;6.25;;
8094;SDS011;4090;49.270;8.696;2023-06-26T06:29:45;9.00;;;6.15;;
8094;SDS011;4090;49.270;8.696;2023-06-26T06:32:27;9.95;;;6.50;;
8094;SDS011;4090;49.270;8.696;2023-06-26T06:35:09;7.75;;;6.55;;
8094;SDS011;4090;49.270;8.696;2023-06-26T06:37:52;9.20;;;6.90;;
8094;SDS011;4090;49.270;8.696;2023-06-26T06:40:34;11.77;;;6.22;;
8094;SDS011;4090;49.270;8.696;2023-06-26T06:43:16;9.38;;;6.30;;
8094;SDS011;4090;49.270;8.696;2023-06-26T06:45:58;8.88;;;6.57;;
8094;SDS011;4090;49.270;8.696;2023-06-26T06:48:40;9.95;;;6.50;;
8094;SDS011;4090;49.270;8.696;2023-06-26T06:51:22;9.23;;;6.60;;
8094;SDS011;4090;49.270;8.696;2023-06-26T06:54:05;10.35;;;6.97;;
8094;SDS011;4090;49.270;8.696;2023-06-26T06:56:47;10.40;;;6.60;;
8094;SDS011;4090;49.270;8.696;2023-06-26T06:59:29;11.55;;;6.55;;
8094;SDS011;4090;49.270;8.696;2023-06-26T07:02:10;10.02;;;6.07;;
8094;SDS011;4090;49.270;8.696;2023-06-26T07:04:52;10.18;;;6.45;;
8094;SDS011;4090;49.270;8.696;2023-06-26T07:07:35;10.70;;;6.20;;
8094;SDS011;4090;49.270;8.696;2023-06-26T07:10:19;9.77;;;6.38;;
8094;SDS011;4090;49.270;8.696;2023-06-26T07:13:01;11.13;;;7.22;;
8094;SDS011;4090;49.270;8.696;2023-06-26T07:15:43;9.20;;;6.40;;
8094;SDS011;4090;49.270;8.696;2023-06-26T07:18:28;9.15;;;6.70;;
8094;SDS011;4090;49.270;8.696;2023-06-26T07:21:09;12.05;;;6.47;;
8094;SDS011;4090;49.270;8.696;2023-06-26T07:23:51;11.40;;;6.28;;
8094;SDS011;4090;49.270;8.696;2023-06-26T07:26:34;10.32;;;6.15;;
8094;SDS011;4090;49.270;8.696;2023-06-26T07:29:16;9.63;;;6.07;;
8094;SDS011;4090;49.270;8.696;2023-06-26T07:31:58;9.25;;;6.53;;
8094;SDS011;4090;49.270;8.696;2023-06-26T07:34:40;9.35;;;5.80;;
8094;SDS011;4090;49.270;8.696;2023-06-26T07:37:22;8.05;;;5.80;;
8094;SDS011;4090;49.270;8.696;2023-06-26T07:40:04;10.90;;;6.05;;
8094;SDS011;4090;49.270;8.696;2023-06-26T07:42:48;7.97;;;5.80;;
8094;SDS011;4090;49.270;8.696;2023-06-26T07:45:30;10.13;;;6.63;;
8094;SDS011;4090;49.270;8.696;2023-06-26T07:48:12;16.40;;;6.85;;
8094;SDS011;4090;49.270;8.696;2023-06-26T07:50:54;19.05;;;7.03;;
8094;SDS011;4090;49.270;8.696;2023-06-26T07:53:36;9.63;;;6.18;;
8094;SDS011;4090;49.270;8.696;2023-06-26T07:56:17;9.13;;;6.10;;
8094;SDS011;4090;49.270;8.696;2023-06-26T07:59:01;18.20;;;6.53;;
8094;SDS011;4090;49.270;8.696;2023-06-26T08:01:44;8.52;;;6.15;;
8094;SDS011;4090;49.270;8.696;2023-06-26T08:04:26;8.80;;;5.63;;
8094;SDS011;4090;49.270;8.696;2023-06-26T08:07:10;12.60;;;6.25;;
8094;SDS011;4090;49.270;8.696;2023-06-26T08:09:51;9.80;;;5.95;;
8094;SDS011;4090;49.270;8.696;2023-06-26T08:12:33;7.55;;;5.72;;
8094;SDS011;4090;49.270;8.696;2023-06-26T08:15:18;7.53;;;5.97;;
8094;SDS011;4090;49.270;8.696;2023-06-26T08:18:00;8.68;;;5.60;;
8094;SDS011;4090;49.270;8.696;2023-06-26T08:20:42;13.18;;;6.35;;
8094;SDS011;4090;49.270;8.696;2023-06-26T08:23:24;7.05;;;4.97;;
8094;SDS011;4090;49.270;8.696;2023-06-26T08:26:05;7.05;;;5.50;;
8094;SDS011;4090;49.270;8.696;2023-06-26T08:28:47;8.52;;;5.47;;
8094;SDS011;4090;49.270;8.696;2023-06-26T08:31:30;7.13;;;5.22;;
8094;SDS011;4090;49.270;8.696;2023-06-26T08:34:14;8.30;;;5.35;;
8094;SDS011;4090;49.270;8.696;2023-06-26T08:36:56;12.98;;;6.38;;
8094;SDS011;4090;49.270;8.696;2023-06-26T08:39:38;19.35;;;6.03;;
8094;SDS011;4090;49.270;8.696;2023-06-26T08:42:20;8.38;;;5.82;;
8094;SDS011;4090;49.270;8.696;2023-06-26T08:45:02;26.35;;;7.85;;
8094;SDS011;4090;49.270;8.696;2023-06-26T08:47:47;20.90;;;6.72;;
8094;SDS011;4090;49.270;8.696;2023-06-26T08:50:33;15.52;;;6.57;;
8094;SDS011;4090;49.270;8.696;2023-06-26T08:53:21;12.60;;;6.63;;
8094;SDS011;4090;49.270;8.696;2023-06-26T08:56:19;17.73;;;6.15;;
8094;SDS011;4090;49.270;8.696;2023-06-26T08:59:03;6.35;;;5.47;;
8094;SDS011;4090;49.270;8.696;2023-06-26T09:01:46;10.02;;;6.28;;
8094;SDS011;4090;49.270;8.696;2023-06-26T09:04:29;10.48;;;6.00;;
8094;SDS011;4090;49.270;8.696;2023-06-26T09:07:11;10.63;;;5.78;;
8094;SDS011;4090;49.270;8.696;2023-06-26T09:09:53;12.23;;;6.40;;
8094;SDS011;4090;49.270;8.696;2023-06-26T09:12:36;9.35;;;5.90;;
8094;SDS011;4090;49.270;8.696;2023-06-26T09:15:19;7.30;;;6.13;;
8094;SDS011;4090;49.270;8.696;2023-06-26T09:18:01;8.15;;;6.05;;
8094;SDS011;4090;49.270;8.696;2023-06-26T09:20:47;8.65;;;6.35;;
8094;SDS011;4090;49.270;8.696;2023-06-26T09:23:29;11.68;;;6.53;;
8094;SDS011;4090;49.270;8.696;2023-06-26T09:26:11;9.52;;;6.30;;
8094;SDS011;4090;49.270;8.696;2023-06-26T09:28:55;19.20;;;7.13;;
8094;SDS011;4090;49.270;8.696;2023-06-26T09:31:38;7.85;;;6.07;;
8094;SDS011;4090;49.270;8.696;2023-06-26T09:34:20;7.18;;;6.07;;
8094;SDS011;4090;49.270;8.696;2023-06-26T09:37:04;7.07;;;5.85;;
8094;SDS011;4090;49.270;8.696;2023-06-26T09:39:46;7.18;;;6.05;;
8094;SDS011;4090;49.270;8.696;2023-06-26T09:42:29;11.30;;;6.85;;
8094;SDS011;4090;49.270;8.696;2023-06-26T09:45:17;6.78;;;6.07;;
8094;SDS011;4090;49.270;8.696;2023-06-26T09:48:00;8.60;;;5.88;;
8094;SDS011;4090;49.270;8.696;2023-06-26T09:50:43;11.15;;;6.72;;
8094;SDS011;4090;49.270;8.696;2023-06-26T09:53:26;7.50;;;6.18;;
8094;SDS011;4090;49.270;8.696;2023-06-26T09:56:09;6.57;;;5.57;;
8094;SDS011;4090;49.270;8.696;2023-06-26T09:58:57;7.50;;;6.13;;
8094;SDS011;4090;49.270;8.696;2023-06-26T10:01:41;9.15;;;6.28;;
8094;SDS011;4090;49.270;8.696;2023-06-26T10:04:26;8.88;;;6.13;;
8094;SDS011;4090;49.270;8.696;2023-06-26T10:07:08;6.95;;;6.25;;
8094;SDS011;4090;49.270;8.696;2023-06-26T10:09:54;9.73;;;6.18;;
8094;SDS011;4090;49.270;8.696;2023-06-26T10:12:37;10.10;;;6.47;;
8094;SDS011;4090;49.270;8.696;2023-06-26T10:15:19;8.27;;;5.97;;
8094;SDS011;4090;49.270;8.696;2023-06-26T10:18:03;7.55;;;5.78;;
8094;SDS011;4090;49.270;8.696;2023-06-26T10:20:46;8.70;;;6.00;;
8094;SDS011;4090;49.270;8.696;2023-06-26T10:23:29;12.50;;;6.88;;
8094;SDS011;4090;49.270;8.696;2023-06-26T10:26:13;12.93;;;6.70;;
8094;SDS011;4090;49.270;8.696;2023-06-26T10:28:56;8.60;;;5.90;;
8094;SDS011;4090;49.270;8.696;2023-06-26T10:31:38;10.15;;;6.40;;
8094;SDS011;4090;49.270;8.696;2023-06-26T10:34:23;7.75;;;5.75;;
8094;SDS011;4090;49.270;8.696;2023-06-26T10:37:06;10.65;;;5.97;;
8094;SDS011;4090;49.270;8.696;2023-06-26T10:39:48;8.13;;;5.75;;
8094;SDS011;4090;49.270;8.696;2023-06-26T10:42:35;6.93;;;6.13;;
8094;SDS011;4090;49.270;8.696;2023-06-26T10:45:19;7.47;;;5.57;;
8094;SDS011;4090;49.270;8.696;2023-06-26T10:48:02;8.38;;;5.95;;
8094;SDS011;4090;49.270;8.696;2023-06-26T10:50:46;9.20;;;6.95;;
8094;SDS011;4090;49.270;8.696;2023-06-26T10:53:29;8.35;;;5.85;;
8094;SDS011;4090;49.270;8.696;2023-06-26T10:56:15;8.30;;;5.72;;
8094;SDS011;4090;49.270;8.696;2023-06-26T10:58:59;7.55;;;6.00;;
8094;SDS011;4090;49.270;8.696;2023-06-26T11:01:54;11.00;;;5.97;;
8094;SDS011;4090;49.270;8.696;2023-06-26T11:04:38;8.23;;;5.93;;
8094;SDS011;4090;49.270;8.696;2023-06-26T11:07:21;7.70;;;6.10;;
8094;SDS011;4090;49.270;8.696;2023-06-26T11:10:07;7.47;;;6.22;;
8094;SDS011;4090;49.270;8.696;2023-06-26T11:12:50;7.32;;;5.50;;
8094;SDS011;4090;49.270;8.696;2023-06-26T11:15:37;6.32;;;5.70;;
8094;SDS011;4090;49.270;8.696;2023-06-26T11:18:19;8.73;;;5.57;;
8094;SDS011;4090;49.270;8.696;2023-06-26T11:21:05;7.28;;;6.47;;
8094;SDS011;4090;49.270;8.696;2023-06-26T11:23:47;6.75;;;5.78;;
8094;SDS011;4090;49.270;8.696;2023-06-26T11:26:31;7.03;;;5.70;;
8094;SDS011;4090;49.270;8.696;2023-06-26T11:29:19;8.77;;;6.45;;
8094;SDS011;4090;49.270;8.696;2023-06-26T11:32:04;9.93;;;6.30;;
8094;SDS011;4090;49.270;8.696;2023-06-26T11:34:47;7.80;;;6.28;;
8094;SDS011;4090;49.270;8.696;2023-06-26T11:37:29;9.60;;;5.80;;
8094;SDS011;4090;49.270;8.696;2023-06-26T11:40:16;10.63;;;6.10;;
8094;SDS011;4090;49.270;8.696;2023-06-26T11:42:59;7.15;;;5.65;;
8094;SDS011;4090;49.270;8.696;2023-06-26T11:45:42;8.50;;;6.22;;
8094;SDS011;4090;49.270;8.696;2023-06-26T11:48:26;7.90;;;5.72;;
8094;SDS011;4090;49.270;8.696;2023-06-26T11:51:08;7.30;;;6.07;;
8094;SDS011;4090;49.270;8.696;2023-06-26T11:53:49;8.32;;;5.93;;
8094;SDS011;4090;49.270;8.696;2023-06-26T11:56:32;8.30;;;6.00;;
8094;SDS011;4090;49.270;8.696;2023-06-26T11:59:14;7.28;;;5.95;;
8094;SDS011;4090;49.270;8.696;2023-06-26T12:01:56;8.98;;;6.55;;
8094;SDS011;4090;49.270;8.696;2023-06-26T12:04:40;9.50;;;6.15;;
8094;SDS011;4090;49.270;8.696;2023-06-26T12:07:23;8.57;;;5.85;;
8094;SDS011;4090;49.270;8.696;2023-06-26T12:10:05;8.75;;;6.07;;
8094;SDS011;4090;49.270;8.696;2023-06-26T12:12:48;6.93;;;5.65;;
8094;SDS011;4090;49.270;8.696;2023-06-26T12:15:30;7.63;;;5.88;;
8094;SDS011;4090;49.270;8.696;2023-06-26T12:18:11;7.30;;;5.90;;
8094;SDS011;4090;49.270;8.696;2023-06-26T12:20:55;7.93;;;6.35;;
8094;SDS011;4090;49.270;8.696;2023-06-26T12:23:38;6.50;;;5.45;;
8094;SDS011;4090;49.270;8.696;2023-06-26T12:26:20;6.90;;;4.95;;
8094;SDS011;4090;49.270;8.696;2023-06-26T12:29:04;9.00;;;5.70;;
8094;SDS011;4090;49.270;8.696;2023-06-26T12:31:49;7.75;;;5.30;;
8094;SDS011;4090;49.270;8.696;2023-06-26T12:34:32;8.40;;;5.57;;
8094;SDS011;4090;49.270;8.696;2023-06-26T12:37:17;6.60;;;4.70;;
8094;SDS011;4090;49.270;8.696;2023-06-26T12:39:59;6.50;;;4.60;;
8094;SDS011;4090;49.270;8.696;2023-06-26T12:42:41;5.22;;;4.20;;
8094;SDS011;4090;49.270;8.696;2023-06-26T12:45:23;5.07;;;3.80;;
8094;SDS011;4090;49.270;8.696;2023-06-26T12:48:10;9.50;;;4.40;;
8094;SDS011;4090;49.270;8.696;2023-06-26T12:50:53;6.65;;;4.13;;
8094;SDS011;4090;49.270;8.696;2023-06-26T12:53:36;6.60;;;3.92;;
8094;SDS011;4090;49.270;8.696;2023-06-26T12:56:19;4.50;;;3.63;;
8094;SDS011;4090;49.270;8.696;2023-06-26T12:59:01;3.95;;;3.38;;
8094;SDS011;4090;49.270;8.696;2023-06-26T13:01:43;6.90;;;3.78;;
8094;SDS011;4090;49.270;8.696;2023-06-26T13:04:25;6.20;;;3.97;;
8094;SDS011;4090;49.270;8.696;2023-06-26T13:07:07;4.20;;;3.72;;
8094;SDS011;4090;49.270;8.696;2023-06-26T13:09:51;6.20;;;4.18;;
8094;SDS011;4090;49.270;8.696;2023-06-26T13:12:33;10.05;;;4.00;;
8094;SDS011;4090;49.270;8.696;2023-06-26T13:15:14;8.15;;;4.03;;
8094;SDS011;4090;49.270;8.696;2023-06-26T13:17:56;5.78;;;4.03;;
8094;SDS011;4090;49.270;8.696;2023-06-26T13:20:38;6.13;;;4.13;;
8094;SDS011;4090;49.270;8.696;2023-06-26T13:23:20;3.90;;;3.47;;
8094;SDS011;4090;49.270;8.696;2023-06-26T13:26:04;5.30;;;3.60;;
8094;SDS011;4090;49.270;8.696;2023-06-26T13:28:46;4.15;;;3.58;;
8094;SDS011;4090;49.270;8.696;2023-06-26T13:31:28;4.75;;;3.83;;
8094;SDS011;4090;49.270;8.696;2023-06-26T13:34:19;4.22;;;3.67;;
8094;SDS011;4090;49.270;8.696;2023-06-26T13:37:02;5.10;;;4.10;;
8094;SDS011;4090;49.270;8.696;2023-06-26T13:39:44;5.30;;;4.30;;
8094;SDS011;4090;49.270;8.696;2023-06-26T13:42:31;7.38;;;4.72;;
8094;SDS011;4090;49.270;8.696;2023-06-26T13:45:12;7.60;;;4.30;;
8094;SDS011;4090;49.270;8.696;2023-06-26T13:47:54;5.95;;;4.43;;
8094;SDS011;4090;49.270;8.696;2023-06-26T13:50:36;6.35;;;5.10;;
8094;SDS011;4090;49.270;8.696;2023-06-26T13:53:18;7.38;;;5.00;;
8094;SDS011;4090;49.270;8.696;2023-06-26T13:56:00;5.22;;;4.68;;
8094;SDS011;4090;49.270;8.696;2023-06-26T13:58:44;7.03;;;5.32;;
8094;SDS011;4090;49.270;8.696;2023-06-26T14:01:26;7.05;;;5.28;;
8094;SDS011;4090;49.270;8.696;2023-06-26T14:04:07;7.72;;;5.82;;
8094;SDS011;4090;49.270;8.696;2023-06-26T14:06:49;9.07;;;6.72;;
8094;SDS011;4090;49.270;8.696;2023-06-26T14:09:31;11.68;;;7.40;;
8094;SDS011;4090;49.270;8.696;2023-06-26T14:12:13;12.18;;;7.75;;
8094;SDS011;4090;49.270;8.696;2023-06-26T14:14:56;11.80;;;8.60;;
8094;SDS011;4090;49.270;8.696;2023-06-26T14:17:38;11.77;;;6.97;;
8094;SDS011;4090;49.270;8.696;2023-06-26T14:20:21;12.68;;;7.65;;
8094;SDS011;4090;49.270;8.696;2023-06-26T14:23:04;11.55;;;7.70;;
8094;SDS011;4090;49.270;8.696;2023-06-26T14:25:46;10.93;;;7.38;;
8094;SDS011;4090;49.270;8.696;2023-06-26T14:28:28;10.02;;;6.93;;
8094;SDS011;4090;49.270;8.696;2023-06-26T14:31:11;11.20;;;6.25;;
8094;SDS011;4090;49.270;8.696;2023-06-26T14:33:53;7.93;;;5.18;;
8094;SDS011;4090;49.270;8.696;2023-06-26T14:36:35;8.02;;;5.22;;
8094;SDS011;4090;49.270;8.696;2023-06-26T14:39:17;8.57;;;5.65;;
8094;SDS011;4090;49.270;8.696;2023-06-26T14:41:59;5.75;;;4.53;;
8094;SDS011;4090;49.270;8.696;2023-06-26T14:44:41;8.57;;;4.65;;
8094;SDS011;4090;49.270;8.696;2023-06-26T14:47:24;7.13;;;4.07;;
8094;SDS011;4090;49.270;8.696;2023-06-26T14:50:07;5.65;;;3.45;;
8094;SDS011;4090;49.270;8.696;2023-06-26T14:52:50;5.10;;;3.30;;
8094;SDS011;4090;49.270;8.696;2023-06-26T14:55:31;4.93;;;3.20;;
8094;SDS011;4090;49.270;8.696;2023-06-26T14:58:13;6.00;;;2.70;;
8094;SDS011;4090;49.270;8.696;2023-06-26T15:00:55;4.72;;;2.78;;
8094;SDS011;4090;49.270;8.696;2023-06-26T15:03:39;6.45;;;2.85;;
8094;SDS011;4090;49.270;8.696;2023-06-26T15:06:21;5.10;;;2.50;;
8094;SDS011;4090;49.270;8.696;2023-06-26T15:09:02;4.40;;;2.42;;
8094;SDS011;4090;49.270;8.696;2023-06-26T15:11:45;4.22;;;2.30;;
8094;SDS011;4090;49.270;8.696;2023-06-26T15:14:27;3.22;;;2.00;;
8094;SDS011;4090;49.270;8.696;2023-06-26T15:17:09;3.75;;;2.13;;
8094;SDS011;4090;49.270;8.696;2023-06-26T15:19:52;3.58;;;1.92;;
8094;SDS011;4090;49.270;8.696;2023-06-26T15:22:34;5.10;;;2.20;;
8094;SDS011;4090;49.270;8.696;2023-06-26T15:25:16;3.25;;;2.28;;
8094;SDS011;4090;49.270;8.696;2023-06-26T15:27:58;3.78;;;2.33;;
8094;SDS011;4090;49.270;8.696;2023-06-26T15:30:40;3.88;;;1.95;;
8094;SDS011;4090;49.270;8.696;2023-06-26T15:33:22;4.70;;;2.08;;
8094;SDS011;4090;49.270;8.696;2023-06-26T15:36:05;3.85;;;2.00;;
8094;SDS011;4090;49.270;8.696;2023-06-26T15:38:47;2.38;;;1.88;;
8094;SDS011;4090;49.270;8.696;2023-06-26T15:41:29;3.65;;;1.80;;
8094;SDS011;4090;49.270;8.696;2023-06-26T15:44:11;2.95;;;2.15;;
8094;SDS011;4090;49.270;8.696;2023-06-26T15:46:53;5.75;;;2.25;;
8094;SDS011;4090;49.270;8.696;2023-06-26T15:49:35;4.20;;;1.85;;
8094;SDS011;4090;49.270;8.696;2023-06-26T15:52:18;4.78;;;2.20;;
8094;SDS011;4090;49.270;8.696;2023-06-26T15:55:00;5.25;;;2.20;;
8094;SDS011;4090;49.270;8.696;2023-06-26T15:57:42;6.18;;;2.08;;
8094;SDS011;4090;49.270;8.696;2023-06-26T16:00:24;9.50;;;2.78;;
8094;SDS011;4090;49.270;8.696;2023-06-26T16:03:06;3.63;;;2.00;;
8094;SDS011;4090;49.270;8.696;2023-06-26T16:05:48;5.30;;;2.00;;
8094;SDS011;4090;49.270;8.696;2023-06-26T16:08:32;7.20;;;2.13;;
8094;SDS011;4090;49.270;8.696;2023-06-26T16:11:14;3.50;;;1.95;;
8094;SDS011;4090;49.270;8.696;2023-06-26T16:13:56;4.93;;;2.10;;
8094;SDS011;4090;49.270;8.696;2023-06-26T16:16:38;3.67;;;2.25;;
8094;SDS011;4090;49.270;8.696;2023-06-26T16:19:20;5.47;;;1.95;;
8094;SDS011;4090;49.270;8.696;2023-06-26T16:22:02;4.53;;;2.00;;
8094;SDS011;4090;49.270;8.696;2023-06-26T16:24:46;3.30;;;2.13;;
8094;SDS011;4090;49.270;8.696;2023-06-26T16:27:28;3.75;;;2.30;;
8094;SDS011;4090;49.270;8.696;2023-06-26T16:30:10;4.53;;;2.08;;
8094;SDS011;4090;49.270;8.696;2023-06-26T16:32:52;3.30;;;1.90;;
8094;SDS011;4090;49.270;8.696;2023-06-26T16:35:34;6.18;;;1.98;;
8094;SDS011;4090;49.270;8.696;2023-06-26T16:38:17;5.22;;;2.03;;
8094;SDS011;4090;49.270;8.696;2023-06-26T16:41:00;4.18;;;2.00;;
8094;SDS011;4090;49.270;8.696;2023-06-26T16:43:42;3.88;;;2.00;;
8094;SDS011;4090;49.270;8.696;2023-06-26T16:46:24;6.80;;;2.08;;
8094;SDS011;4090;49.270;8.696;2023-06-26T16:49:06;4.10;;;1.83;;